Lowman, Idaho
Current Conditions -  °F | °C
As of 1:19 AM on Monday 22 Dec 2014 (Local Time) from KBOI Reporting Station
Light Rain Light Rain  
Wind Chill: 39°   Ceiling: 3400
Heat Index: 39°   Visibility: 5mi
Dew Point: 39°   Wind: 0mph
Humidity: 100%   Direction: NA
Pressure: 30.09"   Gusts: NA
Location:  44.08°N, 115.62°W
Report Text: KBOI 220819Z 00000KT 5SM -RA BR FEW019 BKN034 OVC041 04/04 A3009 RMK AO2 P0001
Loading
Personal Weather Stations






























Interactive Weather Map New forecast layout! Learn more

10-Day Weather Forecast

Advertisements
Track Severe Weather on mobile